Terminal Aerodrome Forecast
Issued by NWS

Home | Current Version | Previous Version | Text Only | Print | Product List | Glossary On
Versions: 1 2 3 4 5 6 7 8 9 10 11 12 13
000
FTUS43 KPAH 212320
TAFOWB
TAF
KOWB 212320Z 2200/2224 31007KT P6SM SCT040
     FM220100 VRB03KT P6SM SCT250
     FM220600 00000KT P6SM SKC
      TEMPO 2209/2212 5SM BR
     FM221500 13005KT P6SM SCT050=

USA.gov is the U.S. government's official web portal to all federal, state and local government web resources and services.